KHRJ Airport (Harnett Rgnl Jetport) Information

FAA: HRJ - ICAO: KHRJ

KHRJ Airport Location

State North Carolina
County Harnett
City Erwin
KHRJ Airport is 4 miles northwest of Erwin, NC.
Latitude 35-22-48.5629N
Longitude 078-43-56.0490W
Elevation 201ft

KHRJ Airport METARs

METAR KHRJ 180755Z AUTO 00000KT 10SM CLR 07/07 A3012 RMK AO2 T00730071
Altimeter 30.12"
Temperature 7.3°C (45.1°F)
Wind 0° at 0KT
Clouds Skies are clear.
Visibility 10.0mi
Time observed: 2021-10-18T07:55:00Z

KHRJ Airport Details

Status Operational
Activation September 1981
Ownership Public
Usage Public
Chart CHARLOTTE
ATC on-site No
Beacon schedule sunset-sunrise
Beacon color clear green

KHRJ Airport Contacts

Owner HARNETT COUNTY
Owner address PO BOX 940, 108 E. FRONT STREET, LILLINGTON, NC 27546
Owner phone (910) 893-7536
Manager HARRY DAVIS
Manager address 113 AIRPORT ROAD, EDENTON, NC 27932
Manager phone 252-482-4664

KHRJ Airport (Harnett Rgnl Jetport) Radio Frequencies

KHRJ (Airport) Radio Frequencies

UNICOM 122.7
Common traffic advisory frequency (CTAF) 122.7